sensor_id;sensor_type;location;lat;lon;timestamp;temperature;humidity
41644;DHT22;44236;48.098;11.582;2024-02-23T00:02:24;19.20;49.90
41644;DHT22;44236;48.098;11.582;2024-02-23T00:04:50;19.20;49.80
41644;DHT22;44236;48.098;11.582;2024-02-23T00:07:15;19.20;49.70
41644;DHT22;44236;48.098;11.582;2024-02-23T00:09:41;18.60;49.40
41644;DHT22;44236;48.098;11.582;2024-02-23T00:12:07;19.20;49.80
41644;DHT22;44236;48.098;11.582;2024-02-23T00:14:34;19.20;49.70
41644;DHT22;44236;48.098;11.582;2024-02-23T00:17:02;19.20;49.70
41644;DHT22;44236;48.098;11.582;2024-02-23T00:19:29;19.20;50.20
41644;DHT22;44236;48.098;11.582;2024-02-23T00:21:55;19.20;49.70
41644;DHT22;44236;48.098;11.582;2024-02-23T00:24:21;19.20;49.90
41644;DHT22;44236;48.098;11.582;2024-02-23T00:26:47;19.20;49.90
41644;DHT22;44236;48.098;11.582;2024-02-23T00:29:13;19.20;50.00
41644;DHT22;44236;48.098;11.582;2024-02-23T00:31:40;19.20;50.10
41644;DHT22;44236;48.098;11.582;2024-02-23T00:34:12;19.10;49.80
41644;DHT22;44236;48.098;11.582;2024-02-23T00:36:42;19.10;50.10
41644;DHT22;44236;48.098;11.582;2024-02-23T00:39:10;19.10;49.50
41644;DHT22;44236;48.098;11.582;2024-02-23T00:41:36;19.10;49.50
41644;DHT22;44236;48.098;11.582;2024-02-23T00:44:02;19.10;49.60
41644;DHT22;44236;48.098;11.582;2024-02-23T00:46:28;19.00;49.40
41644;DHT22;44236;48.098;11.582;2024-02-23T00:48:54;19.00;49.40
41644;DHT22;44236;48.098;11.582;2024-02-23T00:51:20;19.10;49.60
41644;DHT22;44236;48.098;11.582;2024-02-23T00:53:46;19.00;49.50
41644;DHT22;44236;48.098;11.582;2024-02-23T00:56:11;19.00;49.50
41644;DHT22;44236;48.098;11.582;2024-02-23T00:58:38;19.20;51.40
41644;DHT22;44236;48.098;11.582;2024-02-23T01:01:04;19.10;50.40
41644;DHT22;44236;48.098;11.582;2024-02-23T01:03:29;19.10;50.80
41644;DHT22;44236;48.098;11.582;2024-02-23T01:05:55;19.20;50.70
41644;DHT22;44236;48.098;11.582;2024-02-23T01:08:20;19.10;52.80
41644;DHT22;44236;48.098;11.582;2024-02-23T01:10:46;18.90;49.10
41644;DHT22;44236;48.098;11.582;2024-02-23T01:13:12;19.00;49.80
41644;DHT22;44236;48.098;11.582;2024-02-23T01:15:37;18.90;49.70
41644;DHT22;44236;48.098;11.582;2024-02-23T01:18:04;18.90;50.00
41644;DHT22;44236;48.098;11.582;2024-02-23T01:20:31;19.00;50.80
41644;DHT22;44236;48.098;11.582;2024-02-23T01:22:57;19.10;51.90
41644;DHT22;44236;48.098;11.582;2024-02-23T01:25:22;19.00;52.50
41644;DHT22;44236;48.098;11.582;2024-02-23T01:27:48;19.00;53.00
41644;DHT22;44236;48.098;11.582;2024-02-23T01:30:14;19.00;53.60
41644;DHT22;44236;48.098;11.582;2024-02-23T01:32:39;19.00;53.60
41644;DHT22;44236;48.098;11.582;2024-02-23T01:35:06;19.00;53.60
41644;DHT22;44236;48.098;11.582;2024-02-23T01:37:32;19.00;54.50
41644;DHT22;44236;48.098;11.582;2024-02-23T01:39:58;18.90;54.60
41644;DHT22;44236;48.098;11.582;2024-02-23T01:42:24;18.90;54.40
41644;DHT22;44236;48.098;11.582;2024-02-23T01:44:51;19.00;54.80
41644;DHT22;44236;48.098;11.582;2024-02-23T01:47:17;18.90;52.40
41644;DHT22;44236;48.098;11.582;2024-02-23T01:49:45;18.80;50.10
41644;DHT22;44236;48.098;11.582;2024-02-23T01:52:12;18.80;49.50
41644;DHT22;44236;48.098;11.582;2024-02-23T01:54:38;18.80;49.40
41644;DHT22;44236;48.098;11.582;2024-02-23T01:57:04;18.80;49.40
41644;DHT22;44236;48.098;11.582;2024-02-23T01:59:30;18.80;49.30
41644;DHT22;44236;48.098;11.582;2024-02-23T02:01:56;18.80;49.50
41644;DHT22;44236;48.098;11.582;2024-02-23T02:04:21;18.70;49.30
41644;DHT22;44236;48.098;11.582;2024-02-23T02:06:48;18.70;49.40
41644;DHT22;44236;48.098;11.582;2024-02-23T02:09:14;18.70;49.20
41644;DHT22;44236;48.098;11.582;2024-02-23T02:11:47;18.70;49.50
41644;DHT22;44236;48.098;11.582;2024-02-23T02:14:13;18.70;49.20
41644;DHT22;44236;48.098;11.582;2024-02-23T02:16:39;18.70;49.30
41644;DHT22;44236;48.098;11.582;2024-02-23T02:19:04;18.50;49.10
41644;DHT22;44236;48.098;11.582;2024-02-23T02:21:34;18.70;49.20
41644;DHT22;44236;48.098;11.582;2024-02-23T02:24:00;18.70;49.30
41644;DHT22;44236;48.098;11.582;2024-02-23T02:26:25;18.70;49.50
41644;DHT22;44236;48.098;11.582;2024-02-23T02:28:51;18.70;49.40
41644;DHT22;44236;48.098;11.582;2024-02-23T02:31:18;18.60;49.20
41644;DHT22;44236;48.098;11.582;2024-02-23T02:33:43;18.60;49.30
41644;DHT22;44236;48.098;11.582;2024-02-23T02:36:09;18.60;49.60
41644;DHT22;44236;48.098;11.582;2024-02-23T02:38:35;18.60;49.50
41644;DHT22;44236;48.098;11.582;2024-02-23T02:41:01;18.60;49.70
41644;DHT22;44236;48.098;11.582;2024-02-23T02:43:27;18.70;49.90
41644;DHT22;44236;48.098;11.582;2024-02-23T02:45:52;18.70;50.90
41644;DHT22;44236;48.098;11.582;2024-02-23T02:48:18;18.70;51.40
41644;DHT22;44236;48.098;11.582;2024-02-23T02:50:44;18.70;52.10
41644;DHT22;44236;48.098;11.582;2024-02-23T02:53:10;18.70;52.70
41644;DHT22;44236;48.098;11.582;2024-02-23T02:55:36;18.60;53.50
41644;DHT22;44236;48.098;11.582;2024-02-23T02:58:02;18.70;54.40
41644;DHT22;44236;48.098;11.582;2024-02-23T03:00:28;19.20;55.10
41644;DHT22;44236;48.098;11.582;2024-02-23T03:02:53;18.60;55.50
41644;DHT22;44236;48.098;11.582;2024-02-23T03:05:19;18.60;58.70
41644;DHT22;44236;48.098;11.582;2024-02-23T03:07:45;18.60;53.50
41644;DHT22;44236;48.098;11.582;2024-02-23T03:10:10;18.60;49.80
41644;DHT22;44236;48.098;11.582;2024-02-23T03:12:36;18.50;49.10
41644;DHT22;44236;48.098;11.582;2024-02-23T03:15:02;18.50;49.10
41644;DHT22;44236;48.098;11.582;2024-02-23T03:17:28;18.50;49.00
41644;DHT22;44236;48.098;11.582;2024-02-23T03:19:54;18.50;48.90
41644;DHT22;44236;48.098;11.582;2024-02-23T03:22:20;18.50;48.80
41644;DHT22;44236;48.098;11.582;2024-02-23T03:24:45;18.40;48.80
41644;DHT22;44236;48.098;11.582;2024-02-23T03:27:11;18.50;48.90
41644;DHT22;44236;48.098;11.582;2024-02-23T03:29:38;18.40;48.80
41644;DHT22;44236;48.098;11.582;2024-02-23T03:32:04;18.50;48.90
41644;DHT22;44236;48.098;11.582;2024-02-23T03:34:30;18.40;48.70
41644;DHT22;44236;48.098;11.582;2024-02-23T03:36:55;18.40;48.80
41644;DHT22;44236;48.098;11.582;2024-02-23T03:39:21;18.40;48.80
41644;DHT22;44236;48.098;11.582;2024-02-23T03:41:47;18.40;49.30
41644;DHT22;44236;48.098;11.582;2024-02-23T03:44:12;18.40;48.70
41644;DHT22;44236;48.098;11.582;2024-02-23T03:46:38;18.40;48.70
41644;DHT22;44236;48.098;11.582;2024-02-23T03:49:03;18.40;48.90
41644;DHT22;44236;48.098;11.582;2024-02-23T03:51:29;18.40;48.80
41644;DHT22;44236;48.098;11.582;2024-02-23T03:53:54;18.40;48.80
41644;DHT22;44236;48.098;11.582;2024-02-23T03:56:20;18.40;48.70
41644;DHT22;44236;48.098;11.582;2024-02-23T03:58:46;18.40;48.70
41644;DHT22;44236;48.098;11.582;2024-02-23T04:01:11;18.40;48.70
41644;DHT22;44236;48.098;11.582;2024-02-23T04:03:37;18.40;48.60
41644;DHT22;44236;48.098;11.582;2024-02-23T04:06:02;18.40;48.80
41644;DHT22;44236;48.098;11.582;2024-02-23T04:08:28;18.30;48.70
41644;DHT22;44236;48.098;11.582;2024-02-23T04:10:54;18.30;48.60
41644;DHT22;44236;48.098;11.582;2024-02-23T04:13:19;18.30;48.70
41644;DHT22;44236;48.098;11.582;2024-02-23T04:15:45;19.80;49.40
41644;DHT22;44236;48.098;11.582;2024-02-23T04:18:12;18.30;48.90
41644;DHT22;44236;48.098;11.582;2024-02-23T04:20:38;18.30;48.80
41644;DHT22;44236;48.098;11.582;2024-02-23T04:23:03;18.20;48.70
41644;DHT22;44236;48.098;11.582;2024-02-23T04:25:29;18.30;48.70
41644;DHT22;44236;48.098;11.582;2024-02-23T04:27:54;18.30;48.70
41644;DHT22;44236;48.098;11.582;2024-02-23T04:30:20;18.30;48.70
41644;DHT22;44236;48.098;11.582;2024-02-23T04:32:46;18.30;48.70
41644;DHT22;44236;48.098;11.582;2024-02-23T04:35:11;18.30;48.80
41644;DHT22;44236;48.098;11.582;2024-02-23T04:37:37;18.20;48.30
41644;DHT22;44236;48.098;11.582;2024-02-23T04:40:03;18.20;48.90
41644;DHT22;44236;48.098;11.582;2024-02-23T04:42:31;18.20;48.80
41644;DHT22;44236;48.098;11.582;2024-02-23T04:44:56;18.20;49.10
41644;DHT22;44236;48.098;11.582;2024-02-23T04:47:22;18.20;49.00
41644;DHT22;44236;48.098;11.582;2024-02-23T04:49:47;19.10;49.50
41644;DHT22;44236;48.098;11.582;2024-02-23T04:52:14;18.20;49.20
41644;DHT22;44236;48.098;11.582;2024-02-23T04:54:40;18.30;49.00
41644;DHT22;44236;48.098;11.582;2024-02-23T04:57:05;18.30;49.00
41644;DHT22;44236;48.098;11.582;2024-02-23T04:59:31;18.30;49.00
41644;DHT22;44236;48.098;11.582;2024-02-23T05:01:58;18.30;49.00
41644;DHT22;44236;48.098;11.582;2024-02-23T05:04:24;18.40;48.80
41644;DHT22;44236;48.098;11.582;2024-02-23T05:06:52;18.40;49.60
41644;DHT22;44236;48.098;11.582;2024-02-23T05:09:17;18.40;48.80
41644;DHT22;44236;48.098;11.582;2024-02-23T05:11:43;18.40;48.60
41644;DHT22;44236;48.098;11.582;2024-02-23T05:14:09;18.40;48.50
41644;DHT22;44236;48.098;11.582;2024-02-23T05:16:34;18.50;48.50
41644;DHT22;44236;48.098;11.582;2024-02-23T05:19:00;18.40;48.70
41644;DHT22;44236;48.098;11.582;2024-02-23T05:21:25;18.50;48.50
41644;DHT22;44236;48.098;11.582;2024-02-23T05:23:51;18.50;48.40
41644;DHT22;44236;48.098;11.582;2024-02-23T05:26:17;18.50;48.50
41644;DHT22;44236;48.098;11.582;2024-02-23T05:28:45;18.50;48.40
41644;DHT22;44236;48.098;11.582;2024-02-23T05:31:11;18.70;48.30
41644;DHT22;44236;48.098;11.582;2024-02-23T05:33:36;18.50;53.30
41644;DHT22;44236;48.098;11.582;2024-02-23T05:36:04;18.70;59.50
41644;DHT22;44236;48.098;11.582;2024-02-23T05:38:30;18.80;58.10
41644;DHT22;44236;48.098;11.582;2024-02-23T05:40:56;18.70;56.60
41644;DHT22;44236;48.098;11.582;2024-02-23T05:43:22;18.70;55.60
41644;DHT22;44236;48.098;11.582;2024-02-23T05:45:47;18.70;55.00
41644;DHT22;44236;48.098;11.582;2024-02-23T05:48:13;18.70;54.60
41644;DHT22;44236;48.098;11.582;2024-02-23T05:50:39;18.70;54.40
41644;DHT22;44236;48.098;11.582;2024-02-23T05:53:04;18.80;53.70
41644;DHT22;44236;48.098;11.582;2024-02-23T05:55:30;18.80;53.10
41644;DHT22;44236;48.098;11.582;2024-02-23T05:57:56;18.80;52.80
41644;DHT22;44236;48.098;11.582;2024-02-23T06:00:22;18.80;53.00
41644;DHT22;44236;48.098;11.582;2024-02-23T06:02:48;18.80;52.40
41644;DHT22;44236;48.098;11.582;2024-02-23T06:05:13;18.80;52.20
41644;DHT22;44236;48.098;11.582;2024-02-23T06:07:39;19.20;51.90
41644;DHT22;44236;48.098;11.582;2024-02-23T06:10:06;18.80;50.80
41644;DHT22;44236;48.098;11.582;2024-02-23T06:12:31;18.80;50.50
41644;DHT22;44236;48.098;11.582;2024-02-23T06:14:57;18.80;50.80
41644;DHT22;44236;48.098;11.582;2024-02-23T06:17:24;18.80;50.60
41644;DHT22;44236;48.098;11.582;2024-02-23T06:19:49;18.80;50.10
41644;DHT22;44236;48.098;11.582;2024-02-23T06:22:16;18.90;52.00
41644;DHT22;44236;48.098;11.582;2024-02-23T06:24:47;18.90;51.40
41644;DHT22;44236;48.098;11.582;2024-02-23T06:27:12;19.00;51.80
41644;DHT22;44236;48.098;11.582;2024-02-23T06:29:38;19.00;51.20
41644;DHT22;44236;48.098;11.582;2024-02-23T06:32:04;19.00;52.40
41644;DHT22;44236;48.098;11.582;2024-02-23T06:34:30;19.00;50.30
41644;DHT22;44236;48.098;11.582;2024-02-23T06:36:55;19.00;51.50
41644;DHT22;44236;48.098;11.582;2024-02-23T06:39:21;19.10;53.70
41644;DHT22;44236;48.098;11.582;2024-02-23T06:41:47;19.10;53.60
41644;DHT22;44236;48.098;11.582;2024-02-23T06:44:12;19.10;53.10
41644;DHT22;44236;48.098;11.582;2024-02-23T06:46:38;19.10;50.50
41644;DHT22;44236;48.098;11.582;2024-02-23T06:49:04;19.20;52.10
41644;DHT22;44236;48.098;11.582;2024-02-23T06:51:31;19.10;50.40
41644;DHT22;44236;48.098;11.582;2024-02-23T06:53:57;19.20;50.10
41644;DHT22;44236;48.098;11.582;2024-02-23T06:56:23;19.10;50.40
41644;DHT22;44236;48.098;11.582;2024-02-23T06:58:49;19.20;50.10
41644;DHT22;44236;48.098;11.582;2024-02-23T07:01:14;19.20;50.50
41644;DHT22;44236;48.098;11.582;2024-02-23T07:03:40;19.20;50.30
41644;DHT22;44236;48.098;11.582;2024-02-23T07:06:08;19.30;50.90
41644;DHT22;44236;48.098;11.582;2024-02-23T07:08:35;19.20;51.50
41644;DHT22;44236;48.098;11.582;2024-02-23T07:11:01;19.20;52.10
41644;DHT22;44236;48.098;11.582;2024-02-23T07:13:26;19.20;50.90
41644;DHT22;44236;48.098;11.582;2024-02-23T07:15:52;18.90;48.10
41644;DHT22;44236;48.098;11.582;2024-02-23T07:18:18;18.40;45.50
41644;DHT22;44236;48.098;11.582;2024-02-23T07:20:43;18.50;47.50
41644;DHT22;44236;48.098;11.582;2024-02-23T07:23:10;18.50;48.00
41644;DHT22;44236;48.098;11.582;2024-02-23T07:25:36;18.60;48.40
41644;DHT22;44236;48.098;11.582;2024-02-23T07:28:01;18.60;47.40
41644;DHT22;44236;48.098;11.582;2024-02-23T07:30:27;18.70;46.40
41644;DHT22;44236;48.098;11.582;2024-02-23T07:32:53;18.80;47.30
41644;DHT22;44236;48.098;11.582;2024-02-23T07:35:19;18.80;47.50
41644;DHT22;44236;48.098;11.582;2024-02-23T07:37:44;18.90;47.10
41644;DHT22;44236;48.098;11.582;2024-02-23T07:40:10;18.90;47.30
41644;DHT22;44236;48.098;11.582;2024-02-23T07:42:38;19.00;49.20
41644;DHT22;44236;48.098;11.582;2024-02-23T07:45:04;18.90;47.30
41644;DHT22;44236;48.098;11.582;2024-02-23T07:47:31;19.00;49.50
41644;DHT22;44236;48.098;11.582;2024-02-23T07:49:57;19.00;46.90
41644;DHT22;44236;48.098;11.582;2024-02-23T07:52:22;19.00;46.80
41644;DHT22;44236;48.098;11.582;2024-02-23T07:54:53;19.00;46.40
41644;DHT22;44236;48.098;11.582;2024-02-23T07:57:19;19.10;47.30
41644;DHT22;44236;48.098;11.582;2024-02-23T07:59:45;19.00;46.90
41644;DHT22;44236;48.098;11.582;2024-02-23T08:02:11;19.10;46.70
41644;DHT22;44236;48.098;11.582;2024-02-23T08:04:37;19.10;46.90
41644;DHT22;44236;48.098;11.582;2024-02-23T08:07:03;19.10;47.00
41644;DHT22;44236;48.098;11.582;2024-02-23T08:09:29;19.10;46.50
41644;DHT22;44236;48.098;11.582;2024-02-23T08:11:55;19.10;46.60
41644;DHT22;44236;48.098;11.582;2024-02-23T08:14:20;19.10;46.20
41644;DHT22;44236;48.098;11.582;2024-02-23T08:16:46;19.10;46.50
41644;DHT22;44236;48.098;11.582;2024-02-23T08:19:11;19.10;46.10
41644;DHT22;44236;48.098;11.582;2024-02-23T08:21:37;19.10;46.00
41644;DHT22;44236;48.098;11.582;2024-02-23T08:24:03;19.10;46.20
41644;DHT22;44236;48.098;11.582;2024-02-23T08:26:29;19.10;46.70
41644;DHT22;44236;48.098;11.582;2024-02-23T08:28:54;19.10;46.30
41644;DHT22;44236;48.098;11.582;2024-02-23T08:31:20;19.10;46.90
41644;DHT22;44236;48.098;11.582;2024-02-23T08:33:45;19.10;47.30
41644;DHT22;44236;48.098;11.582;2024-02-23T08:36:12;19.10;47.10
41644;DHT22;44236;48.098;11.582;2024-02-23T08:38:37;19.50;48.20
41644;DHT22;44236;48.098;11.582;2024-02-23T08:41:04;19.10;47.60
41644;DHT22;44236;48.098;11.582;2024-02-23T08:43:29;19.20;47.20
41644;DHT22;44236;48.098;11.582;2024-02-23T08:45:55;19.10;48.10
41644;DHT22;44236;48.098;11.582;2024-02-23T08:48:21;19.10;47.90
41644;DHT22;44236;48.098;11.582;2024-02-23T08:50:46;19.10;48.00
41644;DHT22;44236;48.098;11.582;2024-02-23T08:53:12;19.10;47.50
41644;DHT22;44236;48.098;11.582;2024-02-23T08:55:37;19.10;46.70
41644;DHT22;44236;48.098;11.582;2024-02-23T08:58:03;19.10;46.10
41644;DHT22;44236;48.098;11.582;2024-02-23T09:00:31;19.10;46.70
41644;DHT22;44236;48.098;11.582;2024-02-23T09:02:57;19.10;46.20
41644;DHT22;44236;48.098;11.582;2024-02-23T09:05:22;19.10;46.30
41644;DHT22;44236;48.098;11.582;2024-02-23T09:07:48;19.20;46.30
41644;DHT22;44236;48.098;11.582;2024-02-23T09:10:14;19.00;46.30
41644;DHT22;44236;48.098;11.582;2024-02-23T09:12:39;19.10;46.70
41644;DHT22;44236;48.098;11.582;2024-02-23T09:15:05;19.20;47.20
41644;DHT22;44236;48.098;11.582;2024-02-23T09:17:31;19.20;46.50
41644;DHT22;44236;48.098;11.582;2024-02-23T09:19:57;19.20;46.50
41644;DHT22;44236;48.098;11.582;2024-02-23T09:22:22;19.20;46.70
41644;DHT22;44236;48.098;11.582;2024-02-23T09:24:49;19.20;46.50
41644;DHT22;44236;48.098;11.582;2024-02-23T09:27:14;19.20;46.80
41644;DHT22;44236;48.098;11.582;2024-02-23T09:29:41;19.10;46.60
41644;DHT22;44236;48.098;11.582;2024-02-23T09:32:07;19.20;46.30
41644;DHT22;44236;48.098;11.582;2024-02-23T09:34:33;19.20;46.50
41644;DHT22;44236;48.098;11.582;2024-02-23T09:36:59;19.20;47.50
41644;DHT22;44236;48.098;11.582;2024-02-23T09:39:24;19.10;46.40
41644;DHT22;44236;48.098;11.582;2024-02-23T09:41:52;19.20;46.70
41644;DHT22;44236;48.098;11.582;2024-02-23T09:44:20;19.20;47.00
41644;DHT22;44236;48.098;11.582;2024-02-23T09:46:49;19.10;46.20
41644;DHT22;44236;48.098;11.582;2024-02-23T09:49:16;19.20;47.00
41644;DHT22;44236;48.098;11.582;2024-02-23T09:51:42;19.20;46.90
41644;DHT22;44236;48.098;11.582;2024-02-23T09:54:09;19.20;46.90
41644;DHT22;44236;48.098;11.582;2024-02-23T09:56:34;19.20;46.80
41644;DHT22;44236;48.098;11.582;2024-02-23T09:59:03;19.20;46.90
41644;DHT22;44236;48.098;11.582;2024-02-23T10:01:32;19.20;47.20
41644;DHT22;44236;48.098;11.582;2024-02-23T10:04:01;19.20;46.50
41644;DHT22;44236;48.098;11.582;2024-02-23T10:06:29;19.20;46.80
41644;DHT22;44236;48.098;11.582;2024-02-23T10:08:55;19.20;47.10
41644;DHT22;44236;48.098;11.582;2024-02-23T10:11:21;19.20;46.90
41644;DHT22;44236;48.098;11.582;2024-02-23T10:13:48;19.20;46.80
41644;DHT22;44236;48.098;11.582;2024-02-23T10:16:21;19.20;47.30
41644;DHT22;44236;48.098;11.582;2024-02-23T10:18:48;19.20;46.50
41644;DHT22;44236;48.098;11.582;2024-02-23T10:21:16;19.20;47.10
41644;DHT22;44236;48.098;11.582;2024-02-23T10:23:44;19.20;47.00
41644;DHT22;44236;48.098;11.582;2024-02-23T10:26:10;19.20;46.70
41644;DHT22;44236;48.098;11.582;2024-02-23T10:28:37;19.20;47.10
41644;DHT22;44236;48.098;11.582;2024-02-23T10:31:06;19.20;46.40
41644;DHT22;44236;48.098;11.582;2024-02-23T10:33:32;19.20;47.00
41644;DHT22;44236;48.098;11.582;2024-02-23T10:35:57;19.10;46.00
41644;DHT22;44236;48.098;11.582;2024-02-23T10:38:31;19.10;45.40
41644;DHT22;44236;48.098;11.582;2024-02-23T10:40:58;19.10;45.40
41644;DHT22;44236;48.098;11.582;2024-02-23T10:43:56;19.10;46.20
41644;DHT22;44236;48.098;11.582;2024-02-23T10:46:25;19.20;46.50
41644;DHT22;44236;48.098;11.582;2024-02-23T10:48:54;19.10;45.70
41644;DHT22;44236;48.098;11.582;2024-02-23T10:51:21;19.10;45.80
41644;DHT22;44236;48.098;11.582;2024-02-23T10:53:48;19.20;46.10
41644;DHT22;44236;48.098;11.582;2024-02-23T10:56:13;19.10;46.40
41644;DHT22;44236;48.098;11.582;2024-02-23T10:58:39;19.10;46.30
41644;DHT22;44236;48.098;11.582;2024-02-23T11:01:07;19.10;47.10
41644;DHT22;44236;48.098;11.582;2024-02-23T11:03:36;19.10;46.90
41644;DHT22;44236;48.098;11.582;2024-02-23T11:06:06;19.10;46.60
41644;DHT22;44236;48.098;11.582;2024-02-23T11:08:33;19.10;47.30
41644;DHT22;44236;48.098;11.582;2024-02-23T11:11:10;19.10;47.00
41644;DHT22;44236;48.098;11.582;2024-02-23T11:13:40;19.10;46.80
41644;DHT22;44236;48.098;11.582;2024-02-23T11:16:07;19.10;47.20
41644;DHT22;44236;48.098;11.582;2024-02-23T11:18:35;19.10;46.50
41644;DHT22;44236;48.098;11.582;2024-02-23T11:21:02;19.10;46.90
41644;DHT22;44236;48.098;11.582;2024-02-23T11:24:01;19.10;46.30
41644;DHT22;44236;48.098;11.582;2024-02-23T11:26:27;19.10;46.30
41644;DHT22;44236;48.098;11.582;2024-02-23T11:28:53;19.10;46.40
41644;DHT22;44236;48.098;11.582;2024-02-23T11:31:23;19.10;46.00
41644;DHT22;44236;48.098;11.582;2024-02-23T11:36:43;19.20;46.20
41644;DHT22;44236;48.098;11.582;2024-02-23T11:39:10;19.10;45.80
41644;DHT22;44236;48.098;11.582;2024-02-23T11:41:39;19.10;46.60
41644;DHT22;44236;48.098;11.582;2024-02-23T11:44:04;19.10;46.30
41644;DHT22;44236;48.098;11.582;2024-02-23T11:46:32;19.20;46.00
41644;DHT22;44236;48.098;11.582;2024-02-23T11:48:58;19.10;45.80
41644;DHT22;44236;48.098;11.582;2024-02-23T11:51:25;19.10;46.40
41644;DHT22;44236;48.098;11.582;2024-02-23T11:53:53;19.10;46.10
41644;DHT22;44236;48.098;11.582;2024-02-23T11:56:19;19.10;45.90
41644;DHT22;44236;48.098;11.582;2024-02-23T11:58:46;19.10;46.20
41644;DHT22;44236;48.098;11.582;2024-02-23T12:01:12;19.10;45.80
41644;DHT22;44236;48.098;11.582;2024-02-23T12:03:37;19.10;45.70
41644;DHT22;44236;48.098;11.582;2024-02-23T12:06:05;19.10;46.00
41644;DHT22;44236;48.098;11.582;2024-02-23T12:08:32;19.10;45.60
41644;DHT22;44236;48.098;11.582;2024-02-23T12:11:03;19.10;46.20
41644;DHT22;44236;48.098;11.582;2024-02-23T12:13:29;19.10;46.20
41644;DHT22;44236;48.098;11.582;2024-02-23T12:15:55;19.10;45.70
41644;DHT22;44236;48.098;11.582;2024-02-23T12:18:24;19.10;46.10
41644;DHT22;44236;48.098;11.582;2024-02-23T12:20:59;19.10;45.40
41644;DHT22;44236;48.098;11.582;2024-02-23T12:23:26;19.10;45.40
41644;DHT22;44236;48.098;11.582;2024-02-23T12:25:56;19.10;45.70
41644;DHT22;44236;48.098;11.582;2024-02-23T12:28:23;19.10;45.60
41644;DHT22;44236;48.098;11.582;2024-02-23T12:31:02;19.10;45.10
41644;DHT22;44236;48.098;11.582;2024-02-23T12:33:37;19.10;45.70
41644;DHT22;44236;48.098;11.582;2024-02-23T12:36:05;19.10;45.30
41644;DHT22;44236;48.098;11.582;2024-02-23T12:38:31;19.10;45.20
41644;DHT22;44236;48.098;11.582;2024-02-23T12:40:57;19.10;44.80
41644;DHT22;44236;48.098;11.582;2024-02-23T12:43:23;19.10;45.30
41644;DHT22;44236;48.098;11.582;2024-02-23T12:45:55;19.10;45.20
41644;DHT22;44236;48.098;11.582;2024-02-23T12:48:22;19.10;45.30
41644;DHT22;44236;48.098;11.582;2024-02-23T12:50:48;19.10;45.10
41644;DHT22;44236;48.098;11.582;2024-02-23T12:53:37;19.00;45.90
41644;DHT22;44236;48.098;11.582;2024-02-23T12:56:04;19.00;45.60
41644;DHT22;44236;48.098;11.582;2024-02-23T12:58:32;19.00;45.10
41644;DHT22;44236;48.098;11.582;2024-02-23T13:00:58;19.00;46.00
41644;DHT22;44236;48.098;11.582;2024-02-23T13:03:25;19.00;45.50
41644;DHT22;44236;48.098;11.582;2024-02-23T13:05:51;19.00;46.00
41644;DHT22;44236;48.098;11.582;2024-02-23T13:08:17;19.00;45.10
41644;DHT22;44236;48.098;11.582;2024-02-23T13:10:43;19.00;45.80
41644;DHT22;44236;48.098;11.582;2024-02-23T13:13:09;19.00;45.80
41644;DHT22;44236;48.098;11.582;2024-02-23T13:15:34;19.00;46.30
41644;DHT22;44236;48.098;11.582;2024-02-23T13:18:03;19.00;46.00
41644;DHT22;44236;48.098;11.582;2024-02-23T13:20:29;19.00;45.80
41644;DHT22;44236;48.098;11.582;2024-02-23T13:22:57;19.00;46.10
41644;DHT22;44236;48.098;11.582;2024-02-23T13:25:22;19.00;46.00
41644;DHT22;44236;48.098;11.582;2024-02-23T13:27:48;19.00;45.70
41644;DHT22;44236;48.098;11.582;2024-02-23T13:30:14;19.00;45.80
41644;DHT22;44236;48.098;11.582;2024-02-23T13:32:39;19.00;45.60
41644;DHT22;44236;48.098;11.582;2024-02-23T13:35:05;19.00;45.90
41644;DHT22;44236;48.098;11.582;2024-02-23T13:37:32;19.00;45.40
41644;DHT22;44236;48.098;11.582;2024-02-23T13:39:58;19.00;45.50
41644;DHT22;44236;48.098;11.582;2024-02-23T13:42:23;19.00;45.70
41644;DHT22;44236;48.098;11.582;2024-02-23T13:44:49;19.00;45.70
41644;DHT22;44236;48.098;11.582;2024-02-23T13:47:17;19.00;46.20
41644;DHT22;44236;48.098;11.582;2024-02-23T13:49:43;19.00;45.30
41644;DHT22;44236;48.098;11.582;2024-02-23T13:52:09;19.00;45.40
41644;DHT22;44236;48.098;11.582;2024-02-23T13:54:34;19.00;45.30
41644;DHT22;44236;48.098;11.582;2024-02-23T13:57:00;19.00;45.10
41644;DHT22;44236;48.098;11.582;2024-02-23T13:59:25;19.00;45.30
41644;DHT22;44236;48.098;11.582;2024-02-23T14:01:51;19.00;45.20
41644;DHT22;44236;48.098;11.582;2024-02-23T14:04:18;19.00;45.50
41644;DHT22;44236;48.098;11.582;2024-02-23T14:06:44;19.00;44.90
41644;DHT22;44236;48.098;11.582;2024-02-23T14:09:09;19.00;46.00
41644;DHT22;44236;48.098;11.582;2024-02-23T14:11:35;19.00;46.20
41644;DHT22;44236;48.098;11.582;2024-02-23T14:14:01;18.70;44.90
41644;DHT22;44236;48.098;11.582;2024-02-23T14:16:28;19.00;45.30
41644;DHT22;44236;48.098;11.582;2024-02-23T14:18:54;19.00;45.60
41644;DHT22;44236;48.098;11.582;2024-02-23T14:21:20;19.00;45.40
41644;DHT22;44236;48.098;11.582;2024-02-23T14:23:48;19.00;45.10
41644;DHT22;44236;48.098;11.582;2024-02-23T14:26:13;19.00;45.10
41644;DHT22;44236;48.098;11.582;2024-02-23T14:28:39;18.90;44.70
41644;DHT22;44236;48.098;11.582;2024-02-23T14:31:05;18.90;44.40
41644;DHT22;44236;48.098;11.582;2024-02-23T14:33:32;18.90;44.90
41644;DHT22;44236;48.098;11.582;2024-02-23T14:35:57;19.00;44.60
41644;DHT22;44236;48.098;11.582;2024-02-23T14:38:23;19.00;44.70
41644;DHT22;44236;48.098;11.582;2024-02-23T14:40:49;18.90;44.70
41644;DHT22;44236;48.098;11.582;2024-02-23T14:43:18;18.90;44.50
41644;DHT22;44236;48.098;11.582;2024-02-23T14:45:44;18.90;44.80
41644;DHT22;44236;48.098;11.582;2024-02-23T14:48:09;18.90;44.30
41644;DHT22;44236;48.098;11.582;2024-02-23T14:50:35;18.90;44.10
41644;DHT22;44236;48.098;11.582;2024-02-23T14:53:01;18.90;44.60
41644;DHT22;44236;48.098;11.582;2024-02-23T14:55:26;18.90;44.50
41644;DHT22;44236;48.098;11.582;2024-02-23T14:57:52;18.90;44.00
41644;DHT22;44236;48.098;11.582;2024-02-23T15:00:18;18.90;44.10
41644;DHT22;44236;48.098;11.582;2024-02-23T15:02:43;18.90;44.50
41644;DHT22;44236;48.098;11.582;2024-02-23T15:05:09;18.90;44.10
41644;DHT22;44236;48.098;11.582;2024-02-23T15:07:36;18.90;44.40
41644;DHT22;44236;48.098;11.582;2024-02-23T15:10:03;18.90;44.10
41644;DHT22;44236;48.098;11.582;2024-02-23T15:12:34;18.90;44.20
41644;DHT22;44236;48.098;11.582;2024-02-23T15:15:02;18.90;44.10